Time;durP1;ratioP1;P1;durP2;ratioP2;P2;SDS_P1;SDS_P2;PMS_P1;PMS_P2;Temp;Humidity;BMP_temperature;BMP_pressure;BME280_temperature;BME280_humidity;BME280_pressure;Samples;Min_cycle;Max_cycle;Signal;HPM_P1;HPM_P2
2023/09/10 00:39:08;1507223.00;5.02;2656.72;0.00;0.00;0.62;;;;;23.50;1.10;;;;;;2415338;39;3481;31
2023/09/10 00:44:08;724979.00;2.42;1250.58;0.00;0.00;0.62;;;;;23.50;1.00;;;;;;2369254;40;3569;-88
2023/09/10 00:56:42;1005507.00;3.35;1742.23;35067.00;0.12;61.35;;;;;23.40;1.00;;;;;;2282609;61;974;-91
2023/09/10 01:01:38;3217184.00;10.72;6496.68;1255334.00;4.18;2190.59;;;;;23.10;1.80;;;;;;2273876;61;1304;-90
2023/09/10 01:35:11;1250995.00;4.17;2182.70;66035.00;0.22;114.91;;;;;23.20;1.90;;;;;;2520816;40;3422;31
2023/09/10 02:17:38;1336243.00;4.45;2338.59;37790.00;0.13;66.06;;;;;22.90;2.30;;;;;;2335751;55;3710;-90
2023/09/10 03:22:33;1018626.00;3.40;1765.49;56024.00;0.19;97.60;;;;;22.60;1.90;;;;;;2278873;61;1092;-91
2023/09/10 04:50:07;1233008.00;4.11;2150.01;69793.00;0.23;121.40;;;;;21.90;5.70;;;;;;2378369;55;3636;-88
2023/09/10 06:02:44;1462049.00;4.87;2571.91;0.00;0.00;0.62;;;;;24.10;1.00;;;;;;2305282;56;3641;-87
2023/09/10 06:27:59;1134562.00;3.78;1972.34;0.00;0.00;0.62;;;;;27.60;1.00;;;;;;2334012;40;3514;-89
2023/09/10 06:30:26;410584.00;1.37;708.00;0.00;0.00;0.62;;;;;28.50;1.00;;;;;;2351464;40;3644;-90
2023/09/10 06:32:53;126869.00;0.42;219.93;0.00;0.00;0.62;;;;;28.60;1.00;;;;;;2294943;39;3609;-89
2023/09/10 06:40:23;1669696.00;5.57;2966.69;68030.00;0.23;118.36;;;;;29.10;1.00;;;;;;2289761;39;3559;-89
2023/09/10 06:42:50;553523.00;1.85;954.03;140774.00;0.47;243.91;;;;;29.60;1.00;;;;;;2342870;55;3699;-90
2023/09/10 06:45:19;566618.00;1.89;976.61;132780.00;0.44;230.12;;;;;29.80;1.00;;;;;;2280657;60;1109;-92
2023/09/10 06:57:49;1344385.00;4.48;2353.57;72029.00;0.24;125.27;;;;;30.70;1.00;;;;;;2274214;61;1205;-89
2023/09/10 07:12:52;2019850.00;6.73;3665.16;39422.00;0.13;68.89;;;;;29.80;1.00;;;;;;2297443;56;3627;-89
2023/09/10 07:15:21;815964.00;2.72;1408.98;63541.00;0.21;110.60;;;;;29.60;1.00;;;;;;2280632;60;1594;-90
2023/09/10 07:17:48;724805.00;2.42;1250.28;68855.00;0.23;119.78;;;;;30.00;1.00;;;;;;2280598;60;1387;-89
2023/09/10 07:20:18;858694.00;2.86;1483.69;50298.00;0.17;87.70;;;;;30.00;1.00;;;;;;2353766;55;3831;-92
2023/09/10 07:25:17;1536721.00;5.12;2712.41;16532.00;0.06;29.26;;;;;29.80;1.00;;;;;;2278494;61;1306;-89
2023/09/10 07:40:19;1865147.00;6.22;3351.00;139264.00;0.46;241.30;;;;;31.70;1.00;;;;;;2282090;61;1420;-90
2023/09/10 07:45:20;1369655.00;4.57;2400.16;0.00;0.00;0.62;;;;;31.30;1.00;;;;;;2278098;61;1595;-88
2023/09/10 07:57:45;537155.00;1.79;925.82;0.00;0.00;0.62;;;;;32.70;1.00;;;;;;2278203;61;1306;-87
2023/09/10 08:02:42;760371.00;2.53;1312.10;0.00;0.00;0.62;;;;;32.90;1.00;;;;;;2282429;61;1181;-87
2023/09/10 08:05:10;148772.00;0.50;257.69;0.00;0.00;0.62;;;;;32.50;1.00;;;;;;2280623;61;1084;-88
2023/09/10 08:07:36;215412.00;0.72;372.45;0.00;0.00;0.62;;;;;32.50;1.00;;;;;;2280551;61;929;-90
2023/09/10 08:10:03;72281.00;0.24;125.70;0.00;0.00;0.62;;;;;31.90;1.00;;;;;;2280657;61;1919;-88
2023/09/10 08:12:30;78824.00;0.26;137.01;0.00;0.00;0.62;;;;;32.10;1.00;;;;;;2280543;61;1001;-90
2023/09/10 08:17:28;960344.00;3.20;1662.36;0.00;0.00;0.62;;;;;32.90;1.00;;;;;;2278196;61;1378;-89
2023/09/10 08:19:55;141905.00;0.47;245.85;0.00;0.00;0.62;;;;;32.70;1.00;;;;;;2280650;55;3834;-89
2023/09/10 08:22:22;142050.00;0.47;246.10;0.00;0.00;0.62;;;;;32.80;1.00;;;;;;2284681;60;1007;-89
2023/09/10 08:24:50;318536.00;1.06;549.78;0.00;0.00;0.62;;;;;33.00;1.00;;;;;;2284711;60;997;-89
2023/09/10 08:27:20;377678.00;1.26;651.43;91332.00;0.30;158.61;;;;;33.60;1.00;;;;;;2284649;60;1004;-88
2023/09/10 08:29:47;151015.00;0.50;261.56;0.00;0.00;0.62;;;;;33.40;1.00;;;;;;2280949;60;1994;-88
2023/09/10 08:32:13;12969.00;0.04;23.09;0.00;0.00;0.62;;;;;33.20;1.00;;;;;;2284700;60;1038;-88
2023/09/10 08:34:42;129574.00;0.43;224.59;0.00;0.00;0.62;;;;;33.10;1.00;;;;;;2284729;60;985;-89
2023/09/10 08:37:11;105819.00;0.35;183.62;0.00;0.00;0.62;;;;;32.90;1.00;;;;;;2284585;60;1733;-88
2023/09/10 08:39:38;0.00;0.00;0.62;0.00;0.00;0.62;;;;;33.10;1.00;;;;;;2284546;60;1448;-87
2023/09/10 08:42:16;203781.00;0.68;352.43;0.00;0.00;0.62;;;;;33.10;1.00;;;;;;2284610;60;2100;-87
2023/09/10 08:44:48;159410.00;0.53;276.02;0.00;0.00;0.62;;;;;33.00;1.00;;;;;;2284610;60;1062;-89
2023/09/10 08:47:20;152145.00;0.51;263.50;0.00;0.00;0.62;;;;;32.30;1.00;;;;;;2284736;60;1078;-89
2023/09/10 08:49:51;270742.00;0.90;467.62;41633.00;0.14;72.71;;;;;32.50;1.00;;;;;;2284529;60;2252;-88
2023/09/10 08:52:19;211121.00;0.70;365.06;0.00;0.00;0.62;;;;;32.30;1.00;;;;;;2284581;60;939;-87
2023/09/10 08:54:46;15227.00;0.05;27.00;0.00;0.00;0.62;;;;;32.50;1.00;;;;;;2284492;60;1277;-88
2023/09/10 08:57:15;170219.00;0.57;294.64;0.00;0.00;0.62;;;;;31.80;1.00;;;;;;2284447;60;1662;-88
2023/09/10 08:59:43;38427.00;0.13;67.17;0.00;0.00;0.62;;;;;31.20;1.00;;;;;;2284428;60;1321;-88
2023/09/10 09:04:39;159324.00;0.53;275.87;0.00;0.00;0.62;;;;;30.80;1.00;;;;;;2274038;61;1386;-89
2023/09/10 09:07:12;151749.00;0.51;262.82;0.00;0.00;0.62;;;;;30.80;1.00;;;;;;2274903;55;3905;-89
2023/09/10 09:14:43;490728.00;1.64;845.86;56930.00;0.19;99.17;;;;;30.90;1.00;;;;;;2298234;40;3459;-89
2023/09/10 09:17:13;0.00;0.00;0.62;0.00;0.00;0.62;;;;;31.10;1.00;;;;;;2280480;60;1137;-91
2023/09/10 09:19:44;412288.00;1.37;710.93;139401.00;0.46;241.54;;;;;31.30;1.00;;;;;;2277693;60;1303;-91
2023/09/10 09:22:17;0.00;0.00;0.62;0.00;0.00;0.62;;;;;31.60;1.00;;;;;;2276285;61;1268;-89
2023/09/10 09:24:44;118996.00;0.40;206.35;0.00;0.00;0.62;;;;;31.60;1.00;;;;;;2276204;61;1032;-90
2023/09/10 09:27:12;53594.00;0.18;93.40;0.00;0.00;0.62;;;;;31.90;1.00;;;;;;2287745;39;3579;-90
2023/09/10 09:29:40;103001.00;0.34;178.75;0.00;0.00;0.62;;;;;31.90;1.00;;;;;;2281425;60;2004;-89
2023/09/10 09:32:06;259359.00;0.86;448.05;55668.00;0.19;96.99;;;;;31.40;1.00;;;;;;2280171;61;1267;-87
2023/09/10 09:34:34;241922.00;0.81;418.06;0.00;0.00;0.62;;;;;31.10;1.00;;;;;;2279753;61;1692;-89
2023/09/10 09:37:02;74623.00;0.25;129.75;0.00;0.00;0.62;;;;;31.30;1.00;;;;;;2279952;61;1009;-89
2023/09/10 09:39:32;85732.00;0.29;148.94;0.00;0.00;0.62;;;;;31.50;1.00;;;;;;2280322;61;1309;-89
2023/09/10 09:41:59;0.00;0.00;0.62;0.00;0.00;0.62;;;;;31.30;1.00;;;;;;2280229;61;1082;-89
2023/09/10 09:44:27;12396.00;0.04;22.10;0.00;0.00;0.62;;;;;31.30;1.00;;;;;;2280227;61;1918;-90
2023/09/10 09:46:57;0.00;0.00;0.62;0.00;0.00;0.62;;;;;31.70;1.00;;;;;;2280327;61;1007;-88
2023/09/10 09:49:25;0.00;0.00;0.62;0.00;0.00;0.62;;;;;32.10;1.00;;;;;;2280342;61;1703;-89
2023/09/10 09:51:52;95996.00;0.32;166.66;0.00;0.00;0.62;;;;;32.40;1.00;;;;;;2280177;61;2003;-89
2023/09/10 09:54:19;514813.00;1.72;887.33;141632.00;0.47;245.38;;;;;32.70;1.00;;;;;;2280322;61;1081;-89
2023/09/10 09:56:48;104587.00;0.35;181.49;0.00;0.00;0.62;;;;;32.40;1.00;;;;;;2280313;61;1075;-90
2023/09/10 09:59:16;103233.00;0.34;179.15;0.00;0.00;0.62;;;;;32.20;1.00;;;;;;2280209;61;1601;-88
2023/09/10 10:01:44;0.00;0.00;0.62;0.00;0.00;0.62;;;;;32.00;1.00;;;;;;2280389;61;917;-89
2023/09/10 10:04:15;156889.00;0.52;271.68;0.00;0.00;0.62;;;;;32.00;1.00;;;;;;2280270;61;1646;-88
2023/09/10 10:06:42;103519.00;0.35;179.65;28747.00;0.10;50.41;;;;;32.10;1.00;;;;;;2280297;61;1919;-88
2023/09/10 10:09:09;7683.00;0.03;13.93;0.00;0.00;0.62;;;;;32.20;1.00;;;;;;2280244;61;1407;-89
2023/09/10 10:11:37;120091.00;0.40;208.24;0.00;0.00;0.62;;;;;31.80;1.00;;;;;;2280177;61;1998;-89
2023/09/10 10:14:07;194627.00;0.65;336.67;0.00;0.00;0.62;;;;;31.50;1.00;;;;;;2280323;61;1058;-88
2023/09/10 10:16:34;152715.00;0.51;264.49;0.00;0.00;0.62;;;;;31.40;1.00;;;;;;2280225;61;1057;-89
2023/09/10 10:19:01;180266.00;0.60;311.95;0.00;0.00;0.62;;;;;31.50;1.00;;;;;;2280190;61;1665;-89
2023/09/10 10:21:29;320529.00;1.07;553.21;0.00;0.00;0.62;;;;;31.40;1.00;;;;;;2280172;61;1102;-88
2023/09/10 10:23:56;165866.00;0.55;287.15;0.00;0.00;0.62;;;;;31.60;1.00;;;;;;2280279;61;1386;-88
2023/09/10 10:26:23;282733.00;0.94;488.24;26172.00;0.09;45.96;;;;;31.80;1.00;;;;;;2280285;61;1664;-87
2023/09/10 10:28:51;281271.00;0.94;485.72;1021.00;0.00;2.39;;;;;32.00;1.00;;;;;;2280209;61;1379;-90
2023/09/10 10:31:22;201064.00;0.67;347.76;0.00;0.00;0.62;;;;;32.00;1.00;;;;;;2310603;55;3599;-88
2023/09/10 10:33:55;95379.00;0.32;165.59;0.00;0.00;0.62;;;;;31.90;1.00;;;;;;2280113;60;1661;-89
2023/09/10 10:36:33;0.00;0.00;0.62;0.00;0.00;0.62;;;;;31.10;1.00;;;;;;2280216;60;1730;-89
2023/09/10 10:39:07;958.00;0.00;2.28;0.00;0.00;0.62;;;;;31.10;1.00;;;;;;2281360;55;3797;-90
2023/09/10 10:41:38;63836.00;0.21;111.11;0.00;0.00;0.62;;;;;31.10;1.00;;;;;;2280277;61;1060;-88
2023/09/10 10:44:20;369.00;0.00;1.26;0.00;0.00;0.62;;;;;31.20;1.00;;;;;;2280274;61;914;-90
2023/09/10 10:46:56;57077.00;0.19;99.42;0.00;0.00;0.62;;;;;31.20;1.00;;;;;;2304300;56;3779;-88
2023/09/10 10:49:24;38059.00;0.13;66.53;0.00;0.00;0.62;;;;;31.30;1.00;;;;;;2277828;60;1518;-88
2023/09/10 10:54:22;412261.00;1.37;710.88;0.00;0.00;0.62;;;;;32.10;1.00;;;;;;2281731;61;1390;-88
2023/09/10 10:56:49;0.00;0.00;0.62;0.00;0.00;0.62;;;;;31.90;1.00;;;;;;2280206;61;1722;-88
2023/09/10 10:59:18;127569.00;0.43;221.14;0.00;0.00;0.62;;;;;31.90;1.00;;;;;;2280855;61;1576;-88
2023/09/10 11:02:13;30187.00;0.10;52.91;0.00;0.00;0.62;;;;;32.30;1.00;;;;;;2280920;61;2196;-88
2023/09/10 11:04:58;59480.00;0.20;103.58;0.00;0.00;0.62;;;;;32.20;1.00;;;;;;2280858;61;1008;-88
2023/09/10 11:07:26;327515.00;1.09;565.21;51353.00;0.17;89.53;;;;;31.90;1.00;;;;;;2280837;61;1090;-88
2023/09/10 11:12:21;171088.00;0.57;296.14;0.00;0.00;0.62;;;;;31.80;1.00;;;;;;2278403;61;1902;-88
2023/09/10 11:15:12;112116.00;0.37;194.48;0.00;0.00;0.62;;;;;32.10;1.00;;;;;;2276693;61;1520;-89
2023/09/10 11:17:40;0.00;0.00;0.62;0.00;0.00;0.62;;;;;32.30;1.00;;;;;;2274296;61;1093;-89
2023/09/10 11:20:09;88351.00;0.29;153.46;0.00;0.00;0.62;;;;;31.90;1.00;;;;;;2276768;61;1288;-89
2023/09/10 11:23:04;413448.00;1.38;712.93;159420.00;0.53;276.04;;;;;32.00;1.00;;;;;;2276788;61;1038;-88
2023/09/10 11:25:32;960.00;0.00;2.28;0.00;0.00;0.62;;;;;32.10;1.00;;;;;;2276730;61;1114;-87
2023/09/10 11:27:59;69322.00;0.23;120.59;0.00;0.00;0.62;;;;;31.50;1.00;;;;;;2276818;61;994;-86
2023/09/10 11:30:26;180405.00;0.60;312.19;0.00;0.00;0.62;;;;;31.40;1.00;;;;;;2276782;61;1911;-88
2023/09/10 11:33:28;0.00;0.00;0.62;0.00;0.00;0.62;;;;;31.40;1.00;;;;;;2276828;61;1035;-90
2023/09/10 11:35:59;45749.00;0.15;79.83;0.00;0.00;0.62;;;;;31.40;1.00;;;;;;2276846;61;1730;-89
2023/09/10 11:38:30;194932.00;0.65;337.20;78508.00;0.26;136.46;;;;;31.40;1.00;;;;;;2276723;61;2292;-88
2023/09/10 11:40:58;75659.00;0.25;131.54;0.00;0.00;0.62;;;;;31.40;1.00;;;;;;2276706;61;1660;-88
2023/09/10 11:43:26;49830.00;0.17;86.89;0.00;0.00;0.62;;;;;31.40;1.00;;;;;;2276698;61;1100;-88
2023/09/10 11:45:54;19266.00;0.06;34.00;0.00;0.00;0.62;;;;;31.50;1.00;;;;;;2276696;61;1608;-89
2023/09/10 11:48:22;35339.00;0.12;61.82;0.00;0.00;0.62;;;;;31.90;1.00;;;;;;2276577;61;1551;-88
2023/09/10 11:50:51;57823.00;0.19;100.71;0.00;0.00;0.62;;;;;32.00;1.00;;;;;;2276559;61;1924;-88
2023/09/10 11:53:19;0.00;0.00;0.62;0.00;0.00;0.62;;;;;32.10;1.00;;;;;;2276681;61;2203;-89
2023/09/10 11:55:47;129015.00;0.43;223.63;39019.00;0.13;68.19;;;;;32.00;1.00;;;;;;2276694;61;1023;-86
2023/09/10 11:58:14;0.00;0.00;0.62;0.00;0.00;0.62;;;;;31.70;1.00;;;;;;2276621;61;1402;-89
2023/09/10 12:00:43;108527.00;0.36;188.29;0.00;0.00;0.62;;;;;32.10;1.00;;;;;;2276765;61;1071;-89
2023/09/10 12:03:10;120592.00;0.40;209.10;0.00;0.00;0.62;;;;;31.90;1.00;;;;;;2276735;61;1010;-89
2023/09/10 12:05:39;301978.00;1.01;521.32;49910.00;0.17;87.03;;;;;32.10;1.00;;;;;;2276752;61;1047;-88
2023/09/10 12:08:06;0.00;0.00;0.62;0.00;0.00;0.62;;;;;32.20;1.00;;;;;;2276531;61;1656;-88
2023/09/10 12:10:33;379434.00;1.26;654.45;0.00;0.00;0.62;;;;;32.10;1.00;;;;;;2289835;56;3717;-87
2023/09/10 12:13:03;86487.00;0.29;150.24;0.00;0.00;0.62;;;;;32.30;1.00;;;;;;2284765;60;1024;-90
2023/09/10 12:15:33;66250.00;0.22;115.28;0.00;0.00;0.62;;;;;32.40;1.00;;;;;;2284898;60;1054;-88
2023/09/10 12:18:04;64650.00;0.22;112.51;0.00;0.00;0.62;;;;;32.10;1.00;;;;;;2284860;60;1099;-88
2023/09/10 12:20:33;0.00;0.00;0.62;0.00;0.00;0.62;;;;;32.10;1.00;;;;;;2280621;61;1398;-88
2023/09/10 12:23:03;51692.00;0.17;90.11;0.00;0.00;0.62;;;;;32.30;1.00;;;;;;2280436;61;1622;-88
2023/09/10 12:25:30;308101.00;1.03;531.85;112453.00;0.37;195.06;;;;;32.10;1.00;;;;;;2280365;61;1684;-87
2023/09/10 12:27:58;310197.00;1.03;535.45;90852.00;0.30;157.78;;;;;32.00;1.00;;;;;;2280287;61;951;-88
2023/09/10 12:30:25;0.00;0.00;0.62;0.00;0.00;0.62;;;;;32.30;1.00;;;;;;2280473;61;1324;-88
2023/09/10 12:32:53;79622.00;0.27;138.38;0.00;0.00;0.62;;;;;32.60;1.00;;;;;;2280565;61;1701;-89
2023/09/10 12:35:21;90037.00;0.30;156.37;0.00;0.00;0.62;;;;;32.80;1.00;;;;;;2280580;61;1042;-88
2023/09/10 12:37:50;232273.00;0.77;401.46;0.00;0.00;0.62;;;;;33.00;1.00;;;;;;2280572;61;1071;-89
2023/09/10 12:40:19;76122.00;0.25;132.34;0.00;0.00;0.62;;;;;32.70;1.00;;;;;;2280625;61;1546;-88
2023/09/10 12:42:46;0.00;0.00;0.62;0.00;0.00;0.62;;;;;32.20;1.00;;;;;;2280685;61;1029;-87
2023/09/10 12:45:14;79724.00;0.27;138.56;0.00;0.00;0.62;;;;;31.60;1.00;;;;;;2291069;39;3591;-89
2023/09/10 12:47:42;564661.00;1.88;973.24;47006.00;0.16;82.01;;;;;31.60;1.00;;;;;;2311261;40;3563;-89
2023/09/10 12:50:10;143410.00;0.48;248.45;0.00;0.00;0.62;;;;;31.60;1.00;;;;;;2281233;61;1384;-89
2023/09/10 12:52:38;0.00;0.00;0.62;0.00;0.00;0.62;;;;;31.70;1.00;;;;;;2280538;61;2016;-90
2023/09/10 12:55:06;87891.00;0.29;152.67;0.00;0.00;0.62;;;;;31.80;1.00;;;;;;2280504;61;1665;-88
2023/09/10 12:57:34;273566.00;0.91;472.48;65983.00;0.22;114.82;;;;;32.20;1.00;;;;;;2280530;61;1031;-88
2023/09/10 13:00:04;110446.00;0.37;191.60;0.00;0.00;0.62;;;;;32.80;1.00;;;;;;2280542;61;1378;-91
2023/09/10 13:02:35;108616.00;0.36;188.44;28462.00;0.09;49.92;;;;;33.20;1.00;;;;;;2280630;61;1027;-89
2023/09/10 13:05:02;38637.00;0.13;67.53;0.00;0.00;0.62;;;;;33.10;1.00;;;;;;2280541;61;1067;-89
2023/09/10 13:07:29;79660.00;0.27;138.45;0.00;0.00;0.62;;;;;33.10;1.00;;;;;;2280464;61;1765;-89
2023/09/10 13:09:57;0.00;0.00;0.62;0.00;0.00;0.62;;;;;33.40;1.00;;;;;;2280462;61;1352;-88
2023/09/10 13:12:24;122190.00;0.41;211.86;0.00;0.00;0.62;;;;;33.50;1.00;;;;;;2280461;61;2001;-88
2023/09/10 13:14:52;38459.00;0.13;67.22;0.00;0.00;0.62;;;;;33.30;1.00;;;;;;2280503;61;1601;-88
2023/09/10 13:17:19;38064.00;0.13;66.54;0.00;0.00;0.62;;;;;32.60;1.00;;;;;;2280543;61;1588;-88
2023/09/10 13:19:46;115414.00;0.38;200.17;0.00;0.00;0.62;;;;;32.30;1.00;;;;;;2280251;61;1621;-88
2023/09/10 13:22:13;0.00;0.00;0.62;0.00;0.00;0.62;;;;;32.50;1.00;;;;;;2280466;61;1035;-89
2023/09/10 13:24:40;0.00;0.00;0.62;0.00;0.00;0.62;;;;;32.70;1.00;;;;;;2280443;61;1113;-90
2023/09/10 13:27:07;0.00;0.00;0.62;0.00;0.00;0.62;;;;;33.10;1.00;;;;;;2280352;61;1755;-90
2023/09/10 13:29:34;21011.00;0.07;37.02;0.00;0.00;0.62;;;;;33.30;1.00;;;;;;2280296;61;1716;-89
2023/09/10 13:32:02;65113.00;0.22;113.31;0.00;0.00;0.62;;;;;33.50;1.00;;;;;;2280431;61;2000;-88
2023/09/10 13:36:58;300743.00;1.00;519.20;0.00;0.00;0.62;;;;;33.40;1.00;;;;;;2278296;61;1419;-88
2023/09/10 13:39:26;217165.00;0.72;375.47;0.00;0.00;0.62;;;;;32.90;1.00;;;;;;2276201;61;1590;-88
2023/09/10 13:41:53;19484.00;0.06;34.38;0.00;0.00;0.62;;;;;32.60;1.00;;;;;;2276361;61;1058;-89
2023/09/10 13:44:20;99241.00;0.33;172.26;0.00;0.00;0.62;;;;;32.60;1.00;;;;;;2276469;61;1093;-89
2023/09/10 13:46:47;141468.00;0.47;245.10;0.00;0.00;0.62;;;;;32.40;1.00;;;;;;2276337;61;1611;-89
2023/09/10 13:49:16;228215.00;0.76;394.48;0.00;0.00;0.62;;;;;32.70;1.00;;;;;;2276193;61;1609;-89
2023/09/10 13:51:43;166881.00;0.56;288.89;33970.00;0.11;59.45;;;;;33.10;1.00;;;;;;2276238;61;1919;-90
2023/09/10 13:54:10;66858.00;0.22;116.33;0.00;0.00;0.62;;;;;33.50;1.00;;;;;;2276290;61;929;-89
2023/09/10 13:56:38;87236.00;0.29;151.53;22730.00;0.08;40.00;;;;;33.70;1.00;;;;;;2276290;61;1717;-91
2023/09/10 13:59:05;120040.00;0.40;208.15;0.00;0.00;0.62;;;;;33.10;1.00;;;;;;2276293;61;1367;-88
2023/09/10 14:01:34;327918.00;1.09;565.91;6713.00;0.02;12.25;;;;;32.60;1.00;;;;;;2276296;61;944;-90
2023/09/10 14:04:02;132146.00;0.44;229.03;45683.00;0.15;79.72;;;;;32.70;1.00;;;;;;2276278;61;1038;-89
2023/09/10 14:06:30;0.00;0.00;0.62;0.00;0.00;0.62;;;;;32.60;1.00;;;;;;2276179;61;1063;-89
2023/09/10 14:08:57;146027.00;0.49;252.96;0.00;0.00;0.62;;;;;32.30;1.00;;;;;;2276182;61;1776;-88
2023/09/10 14:13:57;75306.00;0.25;130.93;0.00;0.00;0.62;;;;;32.40;1.00;;;;;;2282335;61;1422;-89
2023/09/10 14:16:25;5600.00;0.02;10.33;0.00;0.00;0.62;;;;;32.50;1.00;;;;;;2280351;61;919;-89
2023/09/10 14:18:51;21796.00;0.07;38.38;0.00;0.00;0.62;;;;;32.30;1.00;;;;;;2299600;40;3633;-88
2023/09/10 14:21:19;582674.00;1.94;1004.31;0.00;0.00;0.62;;;;;32.10;1.00;;;;;;2305606;56;3781;-87
2023/09/10 14:23:48;15484.00;0.05;27.45;0.00;0.00;0.62;;;;;32.20;1.00;;;;;;2284193;60;1714;-90
2023/09/10 14:26:15;211535.00;0.71;365.78;1323.00;0.00;2.91;;;;;32.40;1.00;;;;;;2284338;60;990;-88
2023/09/10 14:28:42;280895.00;0.94;485.08;0.00;0.00;0.62;;;;;32.70;1.00;;;;;;2283413;60;1370;-89
2023/09/10 14:31:09;109014.00;0.36;189.13;0.00;0.00;0.62;;;;;33.00;1.00;;;;;;2280428;61;1998;-87
2023/09/10 14:33:36;105930.00;0.35;183.81;0.00;0.00;0.62;;;;;33.10;1.00;;;;;;2280951;61;1730;-88
2023/09/10 14:36:03;255208.00;0.85;440.91;0.00;0.00;0.62;;;;;32.80;1.00;;;;;;2280950;61;997;-88
2023/09/10 14:38:30;36624.00;0.12;64.05;0.00;0.00;0.62;;;;;32.50;1.00;;;;;;2280818;61;1287;-88
2023/09/10 14:40:58;130452.00;0.43;226.11;0.00;0.00;0.62;;;;;32.20;1.00;;;;;;2280784;61;1680;-88
2023/09/10 14:43:25;95826.00;0.32;166.37;0.00;0.00;0.62;;;;;32.20;1.00;;;;;;2280899;61;1000;-88
2023/09/10 14:45:52;115512.00;0.39;200.34;0.00;0.00;0.62;;;;;32.10;1.00;;;;;;2280923;61;935;-89
2023/09/10 14:48:18;346384.00;1.15;597.65;24828.00;0.08;43.63;;;;;32.10;1.00;;;;;;2280819;61;1686;-88
2023/09/10 14:50:45;332890.00;1.11;574.45;50324.00;0.17;87.75;;;;;32.20;1.00;;;;;;2287448;39;3653;-89
2023/09/10 14:58:17;305077.00;1.02;526.65;0.00;0.00;0.62;;;;;33.10;1.00;;;;;;2278513;60;1418;-89
2023/09/10 15:00:44;97293.00;0.32;168.90;0.00;0.00;0.62;;;;;33.00;1.00;;;;;;2276760;60;972;-89
2023/09/10 15:03:11;0.00;0.00;0.62;0.00;0.00;0.62;;;;;32.90;1.00;;;;;;2276792;60;927;-88
2023/09/10 15:05:37;26830.00;0.09;47.10;0.00;0.00;0.62;;;;;32.80;1.00;;;;;;2276750;60;1614;-89
2023/09/10 15:10:36;832825.00;2.78;1438.43;37695.00;0.13;65.90;;;;;32.70;1.00;;;;;;2282532;61;1414;-88
2023/09/10 15:13:03;42380.00;0.14;74.01;0.00;0.00;0.62;;;;;32.70;1.00;;;;;;2280646;61;2001;-89
2023/09/10 15:15:32;103018.00;0.34;178.78;0.00;0.00;0.62;;;;;32.90;1.00;;;;;;2284769;55;3767;-89
2023/09/10 15:17:59;353479.00;1.18;609.84;0.00;0.00;0.62;;;;;32.80;1.00;;;;;;2300073;40;3611;-88
2023/09/10 15:20:27;148252.00;0.49;256.79;0.00;0.00;0.62;;;;;32.70;1.00;;;;;;2284047;55;3861;-87
2023/09/10 15:22:54;82401.00;0.27;143.18;0.00;0.00;0.62;;;;;32.30;1.00;;;;;;2280765;60;1602;-88
2023/09/10 15:25:21;129745.00;0.43;224.89;0.00;0.00;0.62;;;;;32.30;1.00;;;;;;2280879;60;1053;-89
2023/09/10 15:27:48;102054.00;0.34;177.12;0.00;0.00;0.62;;;;;32.30;1.00;;;;;;2280785;60;1586;-91
2023/09/10 15:30:15;193220.00;0.64;334.25;0.00;0.00;0.62;;;;;32.50;1.00;;;;;;2277174;61;1536;-89
2023/09/10 15:32:43;141677.00;0.47;245.46;0.00;0.00;0.62;;;;;32.40;1.00;;;;;;2276769;61;2006;-88
2023/09/10 15:35:10;150328.00;0.50;260.37;37860.00;0.13;66.19;;;;;31.90;1.00;;;;;;2282326;39;3659;-89
2023/09/10 15:40:10;638136.00;2.13;1100.12;0.00;0.00;0.62;;;;;31.40;1.00;;;;;;2278368;61;1403;-90
2023/09/10 15:42:37;109849.00;0.37;190.57;0.00;0.00;0.62;;;;;31.40;1.00;;;;;;2276582;61;2309;-90
2023/09/10 15:45:05;109129.00;0.36;189.33;0.00;0.00;0.62;;;;;31.60;1.00;;;;;;2276757;61;1115;-90
2023/09/10 15:47:31;108078.00;0.36;187.51;0.00;0.00;0.62;;;;;31.60;1.00;;;;;;2290014;56;3745;-89
2023/09/10 15:50:00;0.00;0.00;0.62;0.00;0.00;0.62;;;;;31.80;1.00;;;;;;2281490;60;1280;-87
2023/09/10 15:52:27;82398.00;0.27;143.18;0.00;0.00;0.62;;;;;31.70;1.00;;;;;;2280617;61;1911;-88
2023/09/10 15:54:54;97317.00;0.32;168.94;0.00;0.00;0.62;;;;;31.60;1.00;;;;;;2280695;61;1040;-90
2023/09/10 15:57:25;74779.00;0.25;130.02;0.00;0.00;0.62;;;;;31.40;1.00;;;;;;2282770;55;3753;-89
2023/09/10 15:59:53;113263.00;0.38;196.46;19675.00;0.07;34.71;;;;;31.50;1.00;;;;;;2277737;60;1316;-88
2023/09/10 16:02:24;45356.00;0.15;79.15;0.00;0.00;0.62;;;;;31.80;1.00;;;;;;2282733;55;3754;-88
2023/09/10 16:04:52;256118.00;0.85;442.47;62661.00;0.21;109.08;;;;;31.40;1.00;;;;;;2284760;60;1549;-88
2023/09/10 16:07:20;76281.00;0.25;132.61;0.00;0.00;0.62;;;;;31.10;1.00;;;;;;2284745;60;1045;-89
2023/09/10 16:09:47;70310.00;0.23;122.30;0.00;0.00;0.62;;;;;31.40;1.00;;;;;;2281168;55;3769;-90
2023/09/10 16:12:14;151244.00;0.50;261.95;0.00;0.00;0.62;;;;;31.40;1.00;;;;;;2276423;61;2000;-88
2023/09/10 16:14:41;0.00;0.00;0.62;0.00;0.00;0.62;;;;;31.50;1.00;;;;;;2276664;61;1005;-88
2023/09/10 16:17:08;113750.00;0.38;197.30;0.00;0.00;0.62;;;;;31.70;1.00;;;;;;2276562;61;2078;-90
2023/09/10 16:19:35;100097.00;0.33;173.74;0.00;0.00;0.62;;;;;31.70;1.00;;;;;;2276605;61;1757;-88
2023/09/10 16:22:03;299296.00;1.00;516.71;38184.00;0.13;66.75;;;;;31.40;1.00;;;;;;2288418;39;3639;-90
2023/09/10 16:24:34;452904.00;1.51;780.78;154241.00;0.51;267.12;;;;;31.20;1.00;;;;;;2284705;60;1633;-89
2023/09/10 16:27:01;1471.00;0.00;3.17;0.00;0.00;0.62;;;;;31.30;1.00;;;;;;2284764;60;1732;-88
2023/09/10 16:29:28;30207.00;0.10;52.94;0.00;0.00;0.62;;;;;31.10;1.00;;;;;;2282227;60;1275;-88
2023/09/10 16:31:55;155902.00;0.52;269.98;0.00;0.00;0.62;;;;;30.90;1.00;;;;;;2280600;61;1919;-87
2023/09/10 16:34:22;112986.00;0.38;195.98;0.00;0.00;0.62;;;;;30.90;1.00;;;;;;2280606;61;2365;-89
2023/09/10 16:36:49;85063.00;0.28;147.78;0.00;0.00;0.62;;;;;31.10;1.00;;;;;;2280502;61;1032;-88
2023/09/10 16:39:15;22626.00;0.08;39.82;0.00;0.00;0.62;;;;;31.30;1.00;;;;;;2280556;61;1631;-87
2023/09/10 16:41:44;248937.00;0.83;430.12;0.00;0.00;0.62;;;;;31.20;1.00;;;;;;2289552;40;3582;-89
2023/09/10 16:54:26;1267245.00;4.22;2212.28;65205.00;0.22;113.47;;;;;30.50;1.00;;;;;;2278062;61;1328;-89
2023/09/10 17:01:58;1733463.00;5.78;3090.63;65320.00;0.22;113.67;;;;;30.40;1.00;;;;;;2346849;40;3510;-90
2023/09/10 17:06:55;1282390.00;4.27;2239.91;0.00;0.00;0.62;;;;;30.30;1.00;;;;;;2304435;39;3693;-89
2023/09/10 17:14:25;1375060.00;4.58;2410.15;14205.00;0.05;25.23;;;;;30.60;1.00;;;;;;2305444;56;3602;-88
2023/09/10 17:57:21;0.00;0.00;0.62;0.00;0.00;0.62;;;;;29.40;1.00;;;;;;1524048;40;3218;-90
2023/09/10 18:27:44;1437562.00;4.79;2526.17;66311.00;0.22;115.39;;;;;29.10;1.00;;;;;;2279312;61;957;-90
2023/09/10 19:03:51;1209119.00;4.03;2106.72;0.00;0.00;0.62;;;;;29.00;1.00;;;;;;860057;56;3611;-90
2023/09/10 20:27:34;1075529.00;3.59;1866.72;0.00;0.00;0.62;;;;;26.60;1.00;;;;;;2278729;61;966;-92
2023/09/10 21:45:43;1063849.00;3.55;1845.89;0.00;0.00;0.62;;;;;25.70;1.00;;;;;;2278469;61;1322;-91
2023/09/10 22:26:03;1036680.00;3.46;1797.55;0.00;0.00;0.62;;;;;25.20;1.00;;;;;;888907;56;3619;-88
2023/09/10 22:31:00;782257.00;2.61;1350.20;0.00;0.00;0.62;;;;;25.30;1.00;;;;;;1658556;55;3608;-92
2023/09/10 22:38:30;726350.00;2.42;1252.96;0.00;0.00;0.62;;;;;25.60;1.00;;;;;;2278510;61;1326;-90
2023/09/10 22:45:56;984944.00;3.28;1705.82;0.00;0.00;0.62;;;;;25.50;1.00;;;;;;2448727;55;3681;-85
